Daniela Morace — IJAJ2 — position and weather

sailwx.info

Track history (hours):
 
Tides and Currents Weather Stations Pressure Air Temp Water Temp Dewpoint Dewpoint Depression Visibility Wind Speed Wind Dir Waves Ship Positions

Daniela Morace

Last reported at 2014-Oct-26 06:31 UTC. Time now 2014-Oct-26 07:48 UTC.
Position N 38°15' E 015°15'.

Length 36 m; draft 1 m.

Type: Ship. MMSI: 247297500.

Date/timePositionNaut miles runAvg speedWind from/ knotsBaromVisibWave heightAir tempDewpointWater temp
2014-Oct-26 06:31N 38°15' E 015°15'8 0.5
2014-Oct-25 14:17N 38°21' E 015°08'1013.2
2014-Oct-25 13:34N 38°13' E 015°15'7 6.5
2014-Oct-25 12:34N 38°19' E 015°12'6 0.3
2014-Oct-24 17:33N 38°13' E 015°14'0 0.0
2014-Oct-24 16:33N 38°13' E 015°14'0 0.0
2014-Oct-24 15:33N 38°13' E 015°14'0 0.0
2014-Oct-24 14:33N 38°13' E 015°14'0 0.0
2014-Oct-24 13:33N 38°13' E 015°14'0 0.0
2014-Oct-24 12:33N 38°13' E 015°14'0 0.0
2014-Oct-24 11:33N 38°13' E 015°14'0 0.0
2014-Oct-24 10:33N 38°13' E 015°14'0 0.0
2014-Oct-24 09:33N 38°13' E 015°14'0 0.0
2014-Oct-24 08:33N 38°13' E 015°14'0 0.0
2014-Oct-24 07:33N 38°13' E 015°14'0 0.0
2014-Oct-24 06:33N 38°13' E 015°14'0 0.0
2014-Oct-23 17:18N 38°13' E 015°14'0 0.0
2014-Oct-23 16:34N 38°13' E 015°14'0 0.0
2014-Oct-23 15:33N 38°13' E 015°14'0 0.0
2014-Oct-23 14:34N 38°13' E 015°14'0 0.0
2014-Oct-23 13:33N 38°13' E 015°14'0 0.0
2014-Oct-23 12:33N 38°13' E 015°14'0 0.0
2014-Oct-23 11:33N 38°13' E 015°14'0 0.0
2014-Oct-23 10:33N 38°13' E 015°14'0 0.0
2014-Oct-23 09:34N 38°13' E 015°14'0 0.0
2014-Oct-23 08:33N 38°13' E 015°14'0 0.0
2014-Oct-23 07:34N 38°13' E 015°14'0 0.0
2014-Oct-23 06:34N 38°13' E 015°14'0 0.0
2014-Oct-23 05:34N 38°13' E 015°14'0 0.0
2014-Oct-22 17:33N 38°13' E 015°14'0 0.0
2014-Oct-22 16:33N 38°13' E 015°14'0 0.0
2014-Oct-22 15:33N 38°13' E 015°14'0 0.0
2014-Oct-22 14:33N 38°13' E 015°14'0 0.3
2014-Oct-22 13:33N 38°13' E 015°15'7 7.0
2014-Oct-22 12:34N 38°19' E 015°11'4 0.6
2014-Oct-22 05:33N 38°16' E 015°15'3 3.1
2014-Oct-22 04:33N 38°13' E 015°14'0 0.0
2014-Oct-21 18:34N 38°13' E 015°15'9 2.0
2014-Oct-21 14:12N 38°20' E 015°09'913.8
2014-Oct-21 13:34N 38°13' E 015°15'8 8.0
2014-Oct-21 12:33N 38°20' E 015°10'6 0.9
2014-Oct-21 05:34N 38°16' E 015°16'5 0.4
2014-Oct-20 18:33N 38°19' E 015°11'2 0.5
2014-Oct-20 14:21N 38°21' E 015°10'911.2
2014-Oct-20 13:33N 38°13' E 015°15'9 0.4
2014-Oct-19 14:10N 38°20' E 015°09'814.0
2014-Oct-19 13:33N 38°13' E 015°14'0 0.0
2014-Oct-18 19:28N 38°13' E 015°14'3 3.8
2014-Oct-18 18:33N 38°16' E 015°16'7 1.6
2014-Oct-18 14:14N 38°21' E 015°09'913.6
2014-Oct-18 13:33N 38°13' E 015°14'3 3.3
2014-Oct-18 12:33N 38°16' E 015°15'0 0.1
2014-Oct-18 05:34N 38°16' E 015°15'6 0.4
2014-Oct-17 14:10N 38°20' E 015°10'812.6
2014-Oct-17 13:33N 38°13' E 015°14'7 7.4
2014-Oct-17 12:33N 38°20' E 015°10'7 1.0
2014-Oct-17 05:34N 38°15' E 015°16'2 2.3
2014-Oct-17 04:33N 38°13' E 015°14'0 0.0
2014-Oct-16 19:23N 38°13' E 015°14'3 3.5
2014-Oct-16 18:33N 38°16' E 015°16'7 1.6
2014-Oct-16 14:15N 38°20' E 015°09'811.8
2014-Oct-16 13:34N 38°13' E 015°14'5 4.7
2014-Oct-16 12:33N 38°18' E 015°13'  
Track history (hours):
 
Tides and Currents Weather Stations Pressure Air Temp Water Temp Dewpoint Dewpoint Depression Visibility Wind Speed Wind Dir Waves Ship Positions

Daniela Morace

Last reported at 2014-Oct-26 06:31 UTC. Time now 2014-Oct-26 07:48 UTC.
Position N 38°15' E 015°15'.

Length 36 m; draft 1 m.

Type: Ship. MMSI: 247297500.

Date/timePositionNaut miles runAvg speedWind from/ knotsBaromVisibWave heightAir tempDewpointWater temp
2014-Oct-26 06:31N 38°15' E 015°15'8 0.5
2014-Oct-25 14:17N 38°21' E 015°08'1013.2
2014-Oct-25 13:34N 38°13' E 015°15'7 6.5
2014-Oct-25 12:34N 38°19' E 015°12'6 0.3
2014-Oct-24 17:33N 38°13' E 015°14'0 0.0
2014-Oct-24 16:33N 38°13' E 015°14'0 0.0
2014-Oct-24 15:33N 38°13' E 015°14'0 0.0
2014-Oct-24 14:33N 38°13' E 015°14'0 0.0
2014-Oct-24 13:33N 38°13' E 015°14'0 0.0
2014-Oct-24 12:33N 38°13' E 015°14'0 0.0
2014-Oct-24 11:33N 38°13' E 015°14'0 0.0
2014-Oct-24 10:33N 38°13' E 015°14'0 0.0
2014-Oct-24 09:33N 38°13' E 015°14'0 0.0
2014-Oct-24 08:33N 38°13' E 015°14'0 0.0
2014-Oct-24 07:33N 38°13' E 015°14'0 0.0
2014-Oct-24 06:33N 38°13' E 015°14'0 0.0
2014-Oct-23 17:18N 38°13' E 015°14'0 0.0
2014-Oct-23 16:34N 38°13' E 015°14'0 0.0
2014-Oct-23 15:33N 38°13' E 015°14'0 0.0
2014-Oct-23 14:34N 38°13' E 015°14'0 0.0
2014-Oct-23 13:33N 38°13' E 015°14'0 0.0
2014-Oct-23 12:33N 38°13' E 015°14'0 0.0
2014-Oct-23 11:33N 38°13' E 015°14'0 0.0
2014-Oct-23 10:33N 38°13' E 015°14'0 0.0
2014-Oct-23 09:34N 38°13' E 015°14'0 0.0
2014-Oct-23 08:33N 38°13' E 015°14'0 0.0
2014-Oct-23 07:34N 38°13' E 015°14'0 0.0
2014-Oct-23 06:34N 38°13' E 015°14'0 0.0
2014-Oct-23 05:34N 38°13' E 015°14'0 0.0
2014-Oct-22 17:33N 38°13' E 015°14'0 0.0
2014-Oct-22 16:33N 38°13' E 015°14'0 0.0
2014-Oct-22 15:33N 38°13' E 015°14'0 0.0
2014-Oct-22 14:33N 38°13' E 015°14'0 0.3
2014-Oct-22 13:33N 38°13' E 015°15'7 7.0
2014-Oct-22 12:34N 38°19' E 015°11'4 0.6
2014-Oct-22 05:33N 38°16' E 015°15'3 3.1
2014-Oct-22 04:33N 38°13' E 015°14'0 0.0
2014-Oct-21 18:34N 38°13' E 015°15'9 2.0
2014-Oct-21 14:12N 38°20' E 015°09'913.8
2014-Oct-21 13:34N 38°13' E 015°15'8 8.0
2014-Oct-21 12:33N 38°20' E 015°10'6 0.9
2014-Oct-21 05:34N 38°16' E 015°16'5 0.4
2014-Oct-20 18:33N 38°19' E 015°11'2 0.5
2014-Oct-20 14:21N 38°21' E 015°10'911.2
2014-Oct-20 13:33N 38°13' E 015°15'9 0.4
2014-Oct-19 14:10N 38°20' E 015°09'814.0
2014-Oct-19 13:33N 38°13' E 015°14'0 0.0
2014-Oct-18 19:28N 38°13' E 015°14'3 3.8
2014-Oct-18 18:33N 38°16' E 015°16'7 1.6
2014-Oct-18 14:14N 38°21' E 015°09'913.6
2014-Oct-18 13:33N 38°13' E 015°14'3 3.3
2014-Oct-18 12:33N 38°16' E 015°15'0 0.1
2014-Oct-18 05:34N 38°16' E 015°15'6 0.4
2014-Oct-17 14:10N 38°20' E 015°10'812.6
2014-Oct-17 13:33N 38°13' E 015°14'7 7.4
2014-Oct-17 12:33N 38°20' E 015°10'7 1.0
2014-Oct-17 05:34N 38°15' E 015°16'2 2.3
2014-Oct-17 04:33N 38°13' E 015°14'0 0.0
2014-Oct-16 19:23N 38°13' E 015°14'3 3.5
2014-Oct-16 18:33N 38°16' E 015°16'7 1.6
2014-Oct-16 14:15N 38°20' E 015°09'811.8
2014-Oct-16 13:34N 38°13' E 015°14'5 4.7
2014-Oct-16 12:33N 38°18' E 015°13'  

Dump ship's entire track history